Weather at Lorn and Islands District General Hospital Helipad

Public forecast

Using degrees Celsius for public forecast. Weather courtesy of forecast.io.

Closest aviation weather report (METAR) to Lorn and Islands District General Hospital Helipad

Report is more than 6 hours old.

Closest report is Tiree Airport, 46.7 nm (86.4 km) W.

2022/11/14 15:20 (retrieved 2 years ago)

EGPU 141520Z 16012KT 9999 FEW020 11/08 Q0999

Closest aviation forecast (TAF) to Lorn and Islands District General Hospital Helipad

Forecast is more than 12 hours old.

Closest forecast is Glasgow International Airport, 47.1 nm (87.2 km) SE.

2023/02/22 18:00 (retrieved 1 year ago)

TAF EGPF 221653Z 2218/2318 34010KT CAVOK BECMG 2218/2221 28004KT PROB40 2303/2310 7000 BECMG 2310/2313 27014KT BKN014 PROB30 TEMPO 2315/2318 7000 -RA